createdAt,value
2022-11-16T09:17:02.649Z,6.21
2022-11-16T09:19:32.676Z,6.24
2022-11-16T09:22:03.226Z,6.25
2022-11-16T09:24:32.782Z,6.20
2022-11-16T09:27:01.937Z,6.15
2022-11-16T09:29:30.618Z,6.09
2022-11-16T09:31:58.087Z,6.05
2022-11-16T09:34:25.857Z,5.99
2022-11-16T09:36:54.112Z,5.96
2022-11-16T09:39:37.088Z,5.92
2022-11-16T09:42:21.147Z,5.93
2022-11-16T09:44:59.691Z,5.92
2022-11-16T09:47:43.047Z,5.92
2022-11-16T09:50:48.390Z,5.94
2022-11-16T09:53:35.068Z,5.93
2022-11-16T09:56:10.590Z,5.94
2022-11-16T09:58:49.168Z,5.94
2022-11-16T21:59:10.483Z,4.22
2022-11-16T22:01:55.777Z,4.21
2022-11-16T22:04:44.687Z,4.21
2022-11-16T22:07:39.493Z,4.21
2022-11-16T22:11:48.584Z,4.25
2022-11-16T22:14:20.323Z,4.22
2022-11-16T22:16:52.978Z,4.21
2022-11-16T22:19:26.574Z,4.20
2022-11-16T22:24:22.217Z,4.21
2022-11-16T22:26:58.479Z,4.15
2022-11-16T22:29:36.704Z,4.12
2022-11-16T22:32:18.410Z,4.11
2022-11-16T22:34:53.297Z,4.11
2022-11-16T22:37:24.623Z,4.10
2022-11-16T22:40:00.164Z,4.08
2022-11-16T22:42:49.308Z,4.09
2022-11-16T22:45:23.722Z,4.04
2022-11-16T22:47:56.812Z,4.06
2022-11-16T22:50:28.591Z,4.06
2022-11-16T22:53:04.992Z,4.06
2022-11-16T22:59:09.891Z,4.08
2022-11-16T23:01:41.420Z,4.06
2022-11-16T23:04:15.145Z,4.04
2022-11-16T23:08:32.799Z,4.08
2022-11-16T23:11:24.856Z,4.08
2022-11-16T23:15:54.715Z,4.10
2022-11-16T23:18:35.241Z,4.08
2022-11-16T23:21:24.408Z,4.08
2022-11-16T23:24:32.842Z,4.12
2022-11-16T23:27:23.152Z,4.09
2022-11-16T23:29:58.279Z,4.07
2022-11-16T23:32:31.142Z,4.06
2022-11-16T23:35:05.226Z,4.07
2022-11-16T23:37:37.902Z,4.06
2022-11-16T23:40:14.145Z,4.05
2022-11-16T23:43:02.814Z,4.06
2022-11-16T23:45:39.040Z,4.06
2022-11-16T23:48:13.205Z,4.07
2022-11-16T23:52:57.632Z,4.10
2022-11-16T23:55:29.639Z,4.08
2022-11-16T23:58:02.231Z,4.06
